createdAt,value
2023-01-09T00:01:36.645Z,77.65
2023-01-09T00:04:05.649Z,87.22
2023-01-09T00:06:34.229Z,75.25
2023-01-09T00:09:02.922Z,96.43
2023-01-09T00:11:31.155Z,90.13
2023-01-09T00:13:59.955Z,71.45
2023-01-09T00:16:28.528Z,73.95
2023-01-09T00:18:56.827Z,87.22
2023-01-09T00:21:25.228Z,77.63
2023-01-09T00:23:55.496Z,77.50
2023-01-09T00:26:23.889Z,76.28
2023-01-09T00:28:53.009Z,72.47
2023-01-09T00:31:22.028Z,73.80
2023-01-09T00:33:56.013Z,90.78
2023-01-09T00:36:24.341Z,72.20
2023-01-09T00:38:52.905Z,81.97
2023-01-09T00:41:29.643Z,56.00
2023-01-09T00:44:02.324Z,50.13
2023-01-09T00:46:36.149Z,66.47
2023-01-09T00:49:07.634Z,71.68
2023-01-09T00:51:36.129Z,78.53
2023-01-09T00:54:04.936Z,59.72
2023-01-09T00:56:35.366Z,67.35
2023-01-09T00:59:04.920Z,62.22
2023-01-09T01:01:33.481Z,71.05
2023-01-09T01:04:01.937Z,68.38
2023-01-09T01:06:30.223Z,61.65
2023-01-09T01:08:58.455Z,66.93
2023-01-09T01:11:26.925Z,67.38
2023-01-09T01:13:55.403Z,66.60
2023-01-09T01:16:23.655Z,76.55
2023-01-09T01:18:52.111Z,69.00
2023-01-09T01:21:20.514Z,62.38
2023-01-09T01:23:48.674Z,70.68
2023-01-09T01:26:17.622Z,56.55
2023-01-09T01:28:46.106Z,55.60
2023-01-09T01:31:19.395Z,80.10
2023-01-09T01:33:47.949Z,85.90
2023-01-09T01:36:16.310Z,78.35
2023-01-09T01:38:45.148Z,83.95
2023-01-09T01:41:13.662Z,69.80
2023-01-09T01:43:53.861Z,70.57
2023-01-09T01:46:22.879Z,69.05
2023-01-09T01:49:15.200Z,71.45
2023-01-09T01:56:51.942Z,83.87
2023-01-09T01:59:25.732Z,53.58
2023-01-09T02:01:58.604Z,66.00
2023-01-09T02:04:28.001Z,67.30
2023-01-09T02:06:57.940Z,99.32
2023-01-09T02:09:27.163Z,99.72
2023-01-09T02:11:58.905Z,103.25
2023-01-09T02:14:32.775Z,114.53
2023-01-09T02:17:01.081Z,107.68
2023-01-09T02:19:49.625Z,118.43
2023-01-09T02:22:37.836Z,124.95
2023-01-09T02:25:38.174Z,112.97
2023-01-09T02:28:18.911Z,93.97
2023-01-09T02:31:11.185Z,82.10
2023-01-09T02:34:11.859Z,114.68
2023-01-09T02:36:58.210Z,111.00
2023-01-09T02:39:38.772Z,98.18
2023-01-09T02:42:19.705Z,74.75
2023-01-09T02:44:48.141Z,74.57
2023-01-09T02:47:16.449Z,69.20
2023-01-09T02:50:03.548Z,63.22
2023-01-09T02:53:13.563Z,72.32
2023-01-09T02:55:51.092Z,80.75
2023-01-09T02:58:42.040Z,85.43
2023-01-09T03:01:19.284Z,110.05
2023-01-09T03:03:56.269Z,92.70
2023-01-09T03:06:25.469Z,77.00
2023-01-09T03:08:58.979Z,81.10
2023-01-09T03:11:33.366Z,84.60
2023-01-09T03:14:12.775Z,82.70
2023-01-09T03:16:42.831Z,84.78
2023-01-09T03:19:16.458Z,83.00
2023-01-09T03:21:47.026Z,69.25
2023-01-09T03:24:15.312Z,81.50
2023-01-09T03:26:44.109Z,101.78
2023-01-09T03:29:12.291Z,84.00
2023-01-09T03:31:40.454Z,87.80
2023-01-09T03:34:09.166Z,81.95
2023-01-09T03:36:38.449Z,88.47
2023-01-09T03:39:06.553Z,98.03
2023-01-09T03:41:34.976Z,88.00
2023-01-09T03:44:03.330Z,86.00
2023-01-09T03:46:31.783Z,71.40
2023-01-09T03:48:59.963Z,83.35
2023-01-09T03:51:28.484Z,72.97
2023-01-09T03:53:56.848Z,73.43
2023-01-09T03:56:25.172Z,73.35
2023-01-09T03:58:53.415Z,69.38
2023-01-09T04:01:21.884Z,66.97
2023-01-09T04:03:50.477Z,66.70
2023-01-09T04:06:18.689Z,66.85
2023-01-09T04:08:46.946Z,60.58
2023-01-09T04:11:15.285Z,61.22
2023-01-09T04:13:43.489Z,62.50
2023-01-09T04:16:12.193Z,70.43
2023-01-09T04:18:40.436Z,84.00
2023-01-09T04:21:08.836Z,79.63
2023-01-09T04:23:37.029Z,75.40
2023-01-09T04:26:05.284Z,74.53
2023-01-09T04:28:33.557Z,77.05
2023-01-09T04:31:01.804Z,81.60
2023-01-09T04:33:30.251Z,73.00
2023-01-09T04:35:58.584Z,73.80
2023-01-09T04:38:26.991Z,61.47
2023-01-09T04:40:55.295Z,62.80
2023-01-09T04:43:23.590Z,73.47
2023-01-09T04:45:51.874Z,56.72
2023-01-09T04:48:20.290Z,65.95
2023-01-09T04:50:48.508Z,69.97
2023-01-09T04:53:16.739Z,67.72
2023-01-09T04:55:45.122Z,96.30
2023-01-09T04:58:13.335Z,89.50
2023-01-09T05:00:41.572Z,70.38
2023-01-09T05:03:09.874Z,87.63
2023-01-09T05:05:37.915Z,94.75
2023-01-09T05:08:06.527Z,86.38
2023-01-09T05:10:34.613Z,79.53
2023-01-09T05:13:02.859Z,84.38
2023-01-09T05:15:31.061Z,84.00
2023-01-09T05:17:59.270Z,77.57
2023-01-09T05:20:27.524Z,92.70
2023-01-09T05:22:55.578Z,70.43
2023-01-09T05:25:23.845Z,70.78
2023-01-09T05:27:52.202Z,80.88
2023-01-09T05:30:20.516Z,77.15
2023-01-09T05:32:48.728Z,83.43
2023-01-09T05:35:17.106Z,78.88
2023-01-09T05:37:45.388Z,60.80
2023-01-09T05:40:14.173Z,70.72
2023-01-09T05:42:44.096Z,76.15
2023-01-09T05:45:12.905Z,67.90
2023-01-09T05:47:41.211Z,68.72
2023-01-09T05:50:09.895Z,71.75
2023-01-09T05:52:38.157Z,63.05
2023-01-09T05:55:07.837Z,67.78
2023-01-09T05:57:36.027Z,74.68
2023-01-09T06:00:05.283Z,64.88
2023-01-09T06:02:34.943Z,67.40
2023-01-09T06:05:03.154Z,59.33
2023-01-09T06:07:31.498Z,59.30
2023-01-09T06:09:59.817Z,65.95
2023-01-09T06:12:28.043Z,65.68
2023-01-09T06:14:56.332Z,57.75
2023-01-09T06:17:24.499Z,60.15
2023-01-09T06:19:52.696Z,78.95
2023-01-09T06:22:20.918Z,62.13
2023-01-09T06:24:49.373Z,75.63
2023-01-09T06:27:17.762Z,66.53
2023-01-09T06:29:45.846Z,75.18
2023-01-09T06:32:14.081Z,71.03
2023-01-09T06:34:42.371Z,78.68
2023-01-09T06:37:11.128Z,70.97
2023-01-09T06:39:39.201Z,79.82
2023-01-09T06:42:07.583Z,71.35
2023-01-09T06:44:36.065Z,72.78
2023-01-09T06:47:05.056Z,58.85
2023-01-09T06:49:33.278Z,68.50
2023-01-09T06:52:01.585Z,59.30
2023-01-09T06:54:29.934Z,59.17
2023-01-09T06:56:58.247Z,81.50
2023-01-09T06:59:26.636Z,78.20
2023-01-09T07:01:54.963Z,79.25
2023-01-09T07:04:23.401Z,90.20
2023-01-09T07:06:51.582Z,76.72
2023-01-09T07:09:19.771Z,81.90
2023-01-09T07:11:47.923Z,89.45
2023-01-09T07:14:16.155Z,93.40
2023-01-09T07:16:44.337Z,86.60
2023-01-09T07:19:12.399Z,86.40
2023-01-09T07:21:40.732Z,93.75
2023-01-09T07:24:09.036Z,89.03
2023-01-09T07:26:37.199Z,90.57
2023-01-09T07:29:05.633Z,92.85
2023-01-09T07:31:33.920Z,84.68
2023-01-09T07:34:02.187Z,106.28
2023-01-09T07:36:30.311Z,91.55
2023-01-09T07:38:58.651Z,78.53
2023-01-09T07:41:27.184Z,96.30
2023-01-09T07:43:55.651Z,88.57
2023-01-09T07:46:23.843Z,84.90
2023-01-09T07:48:52.143Z,106.72
2023-01-09T07:51:20.337Z,104.95
2023-01-09T07:53:48.359Z,100.30
2023-01-09T07:56:16.700Z,114.93
2023-01-09T07:58:44.772Z,100.47
2023-01-09T08:01:13.205Z,105.68
2023-01-09T08:03:41.683Z,84.38
2023-01-09T08:06:10.101Z,115.35
2023-01-09T08:08:38.346Z,88.28
2023-01-09T08:11:06.691Z,81.10
2023-01-09T08:13:35.262Z,79.85
2023-01-09T08:16:03.660Z,89.22
2023-01-09T08:18:32.105Z,68.07
2023-01-09T08:21:01.150Z,72.32
2023-01-09T08:23:30.023Z,103.82
2023-01-09T08:25:58.318Z,87.43
2023-01-09T08:28:26.596Z,89.65
2023-01-09T08:30:54.940Z,90.93
2023-01-09T08:33:23.385Z,87.13
2023-01-09T08:35:51.616Z,92.65
2023-01-09T08:38:19.888Z,93.82
2023-01-09T08:40:48.796Z,94.13
2023-01-09T08:43:17.040Z,90.53
2023-01-09T08:45:45.142Z,94.32
2023-01-09T08:48:13.554Z,95.07
2023-01-09T08:50:41.871Z,83.22
2023-01-09T08:53:10.970Z,77.85
2023-01-09T08:55:39.717Z,89.05
2023-01-09T08:58:08.015Z,87.40
2023-01-09T09:00:36.262Z,83.68
2023-01-09T09:03:04.857Z,95.68
2023-01-09T09:05:33.909Z,91.60
2023-01-09T09:08:02.328Z,128.45
2023-01-09T09:10:31.185Z,85.88
2023-01-09T09:12:59.989Z,93.43
2023-01-09T09:15:30.058Z,83.03
2023-01-09T09:18:00.620Z,73.70
2023-01-09T09:20:35.341Z,86.35
2023-01-09T09:23:03.865Z,59.97
2023-01-09T09:25:32.601Z,64.68
2023-01-09T09:28:01.300Z,73.40
2023-01-09T09:30:29.739Z,61.85
2023-01-09T09:32:57.972Z,61.70
2023-01-09T09:35:26.306Z,79.63
2023-01-09T09:37:59.951Z,80.90
2023-01-09T09:40:48.865Z,83.65
2023-01-09T09:43:44.627Z,76.55
2023-01-09T09:46:42.232Z,81.68
2023-01-09T09:49:27.689Z,62.88
2023-01-09T09:52:14.472Z,79.43
2023-01-09T09:54:50.082Z,67.88
2023-01-09T09:57:33.042Z,91.47
2023-01-09T10:00:02.974Z,73.70
2023-01-09T10:02:46.652Z,82.10
2023-01-09T10:05:35.930Z,82.53
2023-01-09T10:08:28.347Z,70.97
2023-01-09T10:13:26.010Z,67.78
2023-01-09T10:16:36.940Z,64.13
2023-01-09T10:19:28.331Z,72.60
2023-01-09T10:22:15.073Z,88.95
2023-01-09T10:25:04.883Z,70.60
2023-01-09T10:27:57.657Z,69.78
2023-01-09T10:30:38.149Z,91.60
2023-01-09T10:33:24.749Z,65.70
2023-01-09T10:35:58.997Z,59.30
2023-01-09T10:38:41.051Z,77.63
2023-01-09T10:41:21.801Z,80.45
2023-01-09T10:43:57.937Z,68.43
2023-01-09T10:46:37.509Z,64.13
2023-01-09T10:49:15.228Z,80.15
2023-01-09T10:52:05.554Z,69.85
2023-01-09T10:54:33.985Z,63.70
2023-01-09T10:57:02.191Z,66.47
2023-01-09T10:59:30.684Z,60.30
2023-01-09T11:01:59.174Z,61.25
2023-01-09T11:04:31.819Z,80.68
2023-01-09T11:07:07.908Z,70.93
2023-01-09T11:10:09.813Z,145.60
2023-01-09T11:12:38.753Z,83.20
2023-01-09T11:15:18.925Z,62.47
2023-01-09T11:17:48.782Z,66.53
2023-01-09T11:20:18.606Z,106.72
2023-01-09T11:23:05.048Z,63.53
2023-01-09T11:25:33.325Z,64.15
2023-01-09T11:28:04.371Z,56.90
2023-01-09T11:30:37.655Z,65.93
2023-01-09T11:33:19.287Z,68.05
2023-01-09T11:35:57.897Z,63.10
2023-01-09T11:38:26.581Z,52.42
2023-01-09T11:41:03.476Z,72.55
2023-01-09T11:43:33.730Z,61.38
2023-01-09T11:46:10.971Z,66.93
2023-01-09T11:48:52.954Z,90.13
2023-01-09T11:51:33.368Z,64.30
2023-01-09T11:54:05.622Z,60.50
2023-01-09T11:56:34.346Z,67.93
2023-01-09T11:59:02.693Z,67.63
2023-01-09T12:02:08.023Z,55.88
2023-01-09T12:04:47.454Z,70.60
2023-01-09T12:07:44.806Z,89.35
2023-01-09T12:10:56.167Z,65.60
2023-01-09T12:14:01.478Z,58.05
2023-01-09T12:16:51.089Z,64.30
2023-01-09T12:19:38.135Z,82.18
2023-01-09T12:22:17.632Z,83.63
2023-01-09T12:25:12.358Z,78.05
2023-01-09T12:28:09.588Z,67.80
2023-01-09T12:31:10.049Z,57.08
2023-01-09T12:33:56.272Z,51.65
2023-01-09T12:36:30.565Z,59.17
2023-01-09T12:39:23.458Z,69.82
2023-01-09T12:41:51.741Z,72.82
2023-01-09T12:44:44.302Z,66.20
2023-01-09T12:47:43.321Z,65.32
2023-01-09T12:50:15.783Z,59.03
2023-01-09T12:52:58.030Z,64.20
2023-01-09T12:55:30.769Z,82.00
2023-01-09T12:58:02.499Z,64.22
2023-01-09T13:00:57.168Z,62.15
2023-01-09T13:03:41.609Z,63.60
2023-01-09T13:06:16.887Z,60.25
2023-01-09T13:08:55.570Z,90.63
2023-01-09T13:11:38.697Z,66.97
2023-01-09T13:14:48.652Z,61.78
2023-01-09T13:17:39.528Z,48.33
2023-01-09T13:20:33.886Z,64.80
2023-01-09T13:23:04.821Z,63.88
2023-01-09T13:25:54.436Z,63.75
2023-01-09T13:28:29.531Z,75.65
2023-01-09T13:31:16.116Z,73.45
2023-01-09T13:33:51.866Z,75.88
2023-01-09T13:36:26.451Z,82.50
2023-01-09T13:38:57.136Z,82.82
2023-01-09T13:41:26.685Z,62.13
2023-01-09T13:44:06.398Z,61.15
2023-01-09T13:46:42.533Z,79.55
2023-01-09T13:49:41.233Z,106.63
2023-01-09T13:52:38.422Z,51.95
2023-01-09T13:55:12.545Z,59.88
2023-01-09T13:57:44.075Z,70.65
2023-01-09T14:00:18.165Z,69.60
2023-01-09T14:02:46.427Z,40.05
2023-01-09T14:05:15.767Z,60.55
2023-01-09T14:07:44.842Z,68.28
2023-01-09T14:10:35.175Z,61.60
2023-01-09T14:13:18.160Z,55.70
2023-01-09T14:15:47.133Z,61.75
2023-01-09T14:18:19.655Z,64.93
2023-01-09T14:20:58.177Z,58.00
2023-01-09T14:23:52.126Z,52.70
2023-01-09T14:26:24.015Z,55.70
2023-01-09T14:28:52.889Z,76.63
2023-01-09T14:31:33.518Z,65.07
2023-01-09T14:34:32.394Z,62.60
2023-01-09T14:37:02.986Z,62.55
2023-01-09T14:39:33.160Z,59.70
2023-01-09T14:42:05.309Z,66.88
2023-01-09T14:44:46.107Z,63.63
2023-01-09T14:47:32.676Z,51.45
2023-01-09T14:50:26.427Z,51.58
2023-01-09T14:53:19.488Z,76.50
2023-01-09T14:55:57.011Z,59.70
2023-01-09T14:58:29.497Z,56.95
2023-01-09T15:01:18.286Z,70.57
2023-01-09T15:03:54.110Z,67.45
2023-01-09T15:06:30.990Z,58.35
2023-01-09T15:09:06.130Z,75.78
2023-01-09T15:11:35.791Z,60.17
2023-01-09T15:14:05.382Z,63.85
2023-01-09T15:16:33.997Z,59.05
2023-01-09T15:19:08.446Z,68.18
2023-01-09T15:21:36.734Z,69.38
2023-01-09T15:24:26.729Z,64.15
2023-01-09T15:26:59.769Z,75.00
2023-01-09T15:29:28.759Z,50.42
2023-01-09T15:32:07.711Z,64.88
2023-01-09T15:34:37.047Z,68.70
2023-01-09T15:37:05.460Z,69.80
2023-01-09T15:39:37.984Z,74.90
2023-01-09T15:42:15.805Z,79.85
2023-01-09T15:44:47.852Z,71.88
2023-01-09T15:47:24.711Z,52.38
2023-01-09T15:49:53.986Z,65.95
2023-01-09T15:52:22.803Z,69.28
2023-01-09T15:54:51.428Z,69.15
2023-01-09T15:57:29.762Z,82.35
2023-01-09T16:00:18.960Z,83.53
2023-01-09T16:02:47.913Z,60.65
2023-01-09T16:05:17.913Z,68.93
2023-01-09T16:07:51.299Z,64.22
2023-01-09T16:10:26.147Z,77.70
2023-01-09T16:12:54.609Z,68.85
2023-01-09T16:15:22.855Z,89.88
2023-01-09T16:18:16.209Z,81.43
2023-01-09T16:20:45.678Z,82.65
2023-01-09T16:23:32.972Z,79.18
2023-01-09T16:26:07.433Z,96.88
2023-01-09T16:28:35.858Z,64.00
2023-01-09T16:31:07.649Z,70.18
2023-01-09T16:36:05.917Z,103.10
2023-01-09T16:38:34.240Z,95.40
2023-01-09T16:41:08.467Z,76.40
2023-01-09T16:43:36.817Z,77.95
2023-01-09T16:46:05.261Z,82.15
2023-01-09T16:48:35.083Z,78.25
2023-01-09T16:51:03.292Z,109.20
2023-01-09T16:53:31.483Z,80.78
2023-01-09T16:56:00.228Z,76.10
2023-01-09T16:58:34.063Z,95.75
2023-01-09T17:01:02.471Z,85.35
2023-01-09T17:03:30.876Z,93.32
2023-01-09T17:06:01.012Z,168.90
2023-01-09T17:08:34.913Z,107.22
2023-01-09T17:11:03.326Z,77.05
2023-01-09T17:13:31.649Z,110.50
2023-01-09T17:16:00.416Z,115.88
2023-01-09T17:18:30.081Z,121.75
2023-01-09T17:20:58.863Z,101.18
2023-01-09T17:23:27.068Z,127.85
2023-01-09T17:26:00.357Z,119.80
2023-01-09T17:28:29.297Z,115.78
2023-01-09T17:30:57.562Z,106.50
2023-01-09T17:33:25.831Z,98.00
2023-01-09T17:35:54.428Z,90.25
2023-01-09T17:38:22.758Z,105.07
2023-01-09T17:40:51.645Z,193.65
2023-01-09T17:43:20.021Z,203.25
2023-01-09T17:45:48.645Z,213.10
2023-01-09T17:48:19.160Z,150.63
2023-01-09T17:50:48.556Z,144.57
2023-01-09T17:53:16.937Z,126.68
2023-01-09T17:55:45.298Z,142.60
2023-01-09T17:58:27.445Z,166.73
2023-01-09T18:03:24.001Z,195.52
2023-01-09T18:05:52.714Z,215.68
2023-01-09T18:08:21.059Z,136.68
2023-01-09T18:10:49.476Z,140.05
2023-01-09T18:13:18.093Z,100.35
2023-01-09T18:15:47.100Z,137.77
2023-01-09T18:18:15.836Z,232.25
2023-01-09T18:20:45.131Z,256.63
2023-01-09T18:23:13.710Z,246.88
2023-01-09T18:25:43.116Z,213.18
2023-01-09T18:28:13.259Z,240.80
2023-01-09T18:30:42.334Z,217.40
2023-01-09T18:33:10.893Z,211.05
2023-01-09T18:35:39.313Z,197.38
2023-01-09T18:38:08.304Z,219.02
2023-01-09T18:40:36.476Z,206.68
2023-01-09T18:43:05.321Z,223.35
2023-01-09T18:45:36.990Z,199.70
2023-01-09T18:48:06.873Z,165.13
2023-01-09T18:50:36.613Z,193.48
2023-01-09T18:53:04.803Z,199.80
2023-01-09T18:55:33.196Z,172.45
2023-01-09T18:58:01.414Z,136.60
2023-01-09T19:00:29.697Z,127.55
2023-01-09T19:02:58.028Z,150.73
2023-01-09T19:05:26.476Z,124.78
2023-01-09T19:07:54.847Z,104.32
2023-01-09T19:10:23.083Z,109.80
2023-01-09T19:12:52.505Z,104.68
2023-01-09T19:15:20.693Z,85.78
2023-01-09T19:17:48.786Z,109.10
2023-01-09T19:20:17.289Z,140.50
2023-01-09T19:22:45.505Z,121.20
2023-01-09T19:25:13.744Z,132.20
2023-01-09T19:27:42.184Z,139.02
2023-01-09T19:30:11.132Z,134.25
2023-01-09T19:32:40.697Z,122.72
2023-01-09T19:35:09.273Z,155.25
2023-01-09T19:37:37.559Z,142.75
2023-01-09T19:40:06.291Z,127.65
2023-01-09T19:42:34.677Z,127.13
2023-01-09T19:45:02.929Z,122.55
2023-01-09T19:47:34.073Z,164.35
2023-01-09T19:50:04.873Z,127.43
2023-01-09T19:52:33.520Z,119.47
2023-01-09T19:55:01.781Z,128.23
2023-01-09T19:57:30.199Z,162.23
2023-01-09T19:59:58.485Z,187.20
2023-01-09T20:02:27.023Z,182.90
2023-01-09T20:04:55.543Z,220.40
2023-01-09T20:07:23.715Z,167.45
2023-01-09T20:09:52.217Z,139.13
2023-01-09T20:12:20.513Z,149.35
2023-01-09T20:14:48.631Z,161.85
2023-01-09T20:17:17.166Z,131.85
2023-01-09T20:19:45.572Z,178.48
2023-01-09T20:22:14.487Z,159.32
2023-01-09T20:24:42.982Z,181.73
2023-01-09T20:27:11.333Z,178.23
2023-01-09T20:29:39.769Z,169.00
2023-01-09T20:32:08.349Z,162.45
2023-01-09T20:34:36.685Z,170.38
2023-01-09T20:37:05.043Z,153.75
2023-01-09T20:39:33.609Z,140.52
2023-01-09T20:42:01.810Z,132.35
2023-01-09T20:44:30.107Z,135.05
2023-01-09T20:46:58.272Z,165.98
2023-01-09T20:49:26.439Z,158.55
2023-01-09T20:51:54.840Z,147.38
2023-01-09T20:54:24.546Z,192.73
2023-01-09T20:56:52.936Z,276.45
2023-01-09T20:59:21.511Z,245.30
2023-01-09T21:01:50.451Z,235.50
2023-01-09T21:04:19.147Z,216.73
2023-01-09T21:06:50.353Z,225.23
2023-01-09T21:09:19.041Z,213.93
2023-01-09T21:11:47.376Z,227.75
2023-01-09T21:14:15.568Z,217.23
2023-01-09T21:16:51.326Z,199.18
2023-01-09T21:19:22.075Z,218.90
2023-01-09T21:21:52.929Z,211.57
2023-01-09T21:24:21.357Z,167.17
2023-01-09T21:26:49.606Z,187.27
2023-01-09T21:29:17.996Z,185.02
2023-01-09T21:31:46.330Z,201.95
2023-01-09T21:34:14.726Z,196.10
2023-01-09T21:36:43.088Z,174.45
2023-01-09T21:39:11.780Z,188.15
2023-01-09T21:41:40.213Z,154.65
2023-01-09T21:44:14.906Z,129.70
2023-01-09T21:46:43.218Z,130.55
2023-01-09T21:49:11.444Z,158.77
2023-01-09T21:51:39.840Z,150.40
2023-01-09T21:54:10.319Z,145.88
2023-01-09T21:56:38.778Z,124.35
2023-01-09T21:59:07.247Z,141.13
2023-01-09T22:01:35.537Z,126.32
2023-01-09T22:04:05.184Z,127.80
2023-01-09T22:06:35.691Z,133.63
2023-01-09T22:09:04.200Z,109.75
2023-01-09T22:11:32.532Z,153.35
2023-01-09T22:14:00.936Z,182.45
2023-01-09T22:16:29.530Z,160.82
2023-01-09T22:18:58.538Z,174.32
2023-01-09T22:21:26.996Z,169.65
2023-01-09T22:23:55.292Z,172.05
2023-01-09T22:26:23.835Z,145.20
2023-01-09T22:28:51.962Z,139.25
2023-01-09T22:31:23.477Z,113.88
2023-01-09T22:33:56.875Z,99.57
2023-01-09T22:36:26.366Z,107.15
2023-01-09T22:38:55.603Z,123.22
2023-01-09T22:41:25.718Z,110.90
2023-01-09T22:43:54.165Z,119.72
2023-01-09T22:46:22.478Z,137.48
2023-01-09T22:48:50.822Z,136.48
2023-01-09T22:51:21.359Z,116.68
2023-01-09T22:53:51.000Z,131.68
2023-01-09T22:56:21.846Z,163.10
2023-01-09T22:58:55.190Z,154.05
2023-01-09T23:01:23.873Z,112.18
2023-01-09T23:03:52.228Z,119.50
2023-01-09T23:06:22.715Z,110.57
2023-01-09T23:08:52.383Z,121.78
2023-01-09T23:11:31.819Z,101.00
2023-01-09T23:14:00.323Z,95.25
2023-01-09T23:16:28.463Z,113.25
2023-01-09T23:18:56.865Z,100.43
2023-01-09T23:21:25.119Z,109.03
2023-01-09T23:23:53.531Z,103.80
2023-01-09T23:26:21.759Z,101.50
2023-01-09T23:28:49.942Z,124.68
2023-01-09T23:31:18.318Z,114.80
2023-01-09T23:33:46.432Z,111.53
2023-01-09T23:36:14.665Z,123.65
2023-01-09T23:38:43.010Z,121.63
2023-01-09T23:41:11.143Z,98.70
2023-01-09T23:43:39.367Z,110.15
2023-01-09T23:46:07.673Z,165.52
2023-01-09T23:48:36.073Z,238.18
2023-01-09T23:51:04.460Z,247.02
2023-01-09T23:53:33.332Z,319.63
2023-01-09T23:56:01.773Z,437.48
2023-01-09T23:58:29.993Z,407.00
